createdAt,value
2022-12-24T00:01:06.607Z,2.75
2022-12-24T00:03:34.548Z,2.88
2022-12-24T00:06:09.704Z,1.30
2022-12-24T00:08:36.670Z,3.03
2022-12-24T00:11:29.128Z,1.27
2022-12-24T00:16:23.086Z,2.15
2022-12-24T00:18:50.137Z,3.65
2022-12-24T00:21:17.176Z,7.00
2022-12-24T00:23:44.591Z,3.22
2022-12-24T00:26:13.298Z,3.35
2022-12-24T00:28:41.338Z,7.78
2022-12-24T00:31:18.202Z,10.60
2022-12-24T00:33:48.712Z,2.70
2022-12-24T00:36:16.948Z,3.08
2022-12-24T00:38:44.661Z,6.47
2022-12-24T00:41:25.836Z,6.63
2022-12-24T00:44:06.586Z,2.75
2022-12-24T00:46:38.835Z,4.13
2022-12-24T00:49:07.533Z,4.60
2022-12-24T00:51:36.081Z,9.23
2022-12-24T00:54:03.338Z,2.30
2022-12-24T00:56:30.607Z,2.47
2022-12-24T00:58:57.581Z,5.65
2022-12-24T01:01:26.027Z,7.90
2022-12-24T01:04:13.879Z,7.93
2022-12-24T01:06:41.055Z,6.45
2022-12-24T01:09:08.189Z,0.82
2022-12-24T01:11:35.109Z,4.15
2022-12-24T01:14:02.026Z,4.47
2022-12-24T01:16:28.997Z,8.38
2022-12-24T01:18:55.914Z,1.15
2022-12-24T01:21:22.864Z,10.43
2022-12-24T01:23:49.787Z,11.23
2022-12-24T01:26:16.749Z,4.43
2022-12-24T01:28:43.675Z,3.22
2022-12-24T01:31:16.992Z,4.95
2022-12-24T01:33:46.943Z,8.60
2022-12-24T01:36:14.594Z,5.88
2022-12-24T01:38:42.316Z,5.38
2022-12-24T01:41:35.753Z,8.27
2022-12-24T01:44:33.459Z,1.77
2022-12-24T01:47:24.035Z,6.03
2022-12-24T01:50:03.848Z,7.80
2022-12-24T01:52:35.639Z,2.65
2022-12-24T01:55:11.089Z,4.63
2022-12-24T01:57:51.691Z,1.50
2022-12-24T02:00:18.777Z,4.20
2022-12-24T02:02:49.449Z,7.97
2022-12-24T02:05:25.040Z,14.88
2022-12-24T02:07:52.937Z,8.32
2022-12-24T02:10:20.280Z,4.30
2022-12-24T02:12:48.491Z,3.25
2022-12-24T02:15:18.523Z,0.65
2022-12-24T02:18:50.998Z,13.43
2022-12-24T02:21:42.247Z,4.10
2022-12-24T02:24:40.933Z,5.90
2022-12-24T02:27:31.868Z,7.45
2022-12-24T02:30:22.631Z,7.88
2022-12-24T02:32:56.919Z,7.20
2022-12-24T02:35:41.599Z,7.35
2022-12-24T02:38:19.899Z,4.28
2022-12-24T02:41:06.032Z,10.02
2022-12-24T02:43:39.862Z,3.85
2022-12-24T02:46:13.017Z,7.03
2022-12-24T02:48:43.422Z,6.55
2022-12-24T02:51:11.224Z,8.88
2022-12-24T02:53:39.635Z,11.27
2022-12-24T02:56:53.231Z,5.38
2022-12-24T02:59:35.588Z,6.93
2022-12-24T03:04:57.217Z,8.25
2022-12-24T03:07:36.743Z,4.38
2022-12-24T03:10:34.104Z,13.20
2022-12-24T03:13:12.629Z,6.63
2022-12-24T03:15:40.666Z,6.15
2022-12-24T03:18:11.102Z,7.88
2022-12-24T03:20:54.769Z,6.30
2022-12-24T03:23:21.777Z,12.10
2022-12-24T03:25:49.440Z,4.88
2022-12-24T03:28:19.433Z,10.80
2022-12-24T03:30:48.770Z,8.13
2022-12-24T03:33:16.640Z,7.18
2022-12-24T03:35:44.058Z,4.75
2022-12-24T03:38:11.029Z,3.58
2022-12-24T03:40:38.038Z,7.00
2022-12-24T03:43:04.965Z,8.65
2022-12-24T03:45:31.882Z,8.15
2022-12-24T03:47:58.877Z,12.80
2022-12-24T03:50:25.846Z,6.35
2022-12-24T03:52:52.778Z,4.43
2022-12-24T03:55:19.672Z,12.77
2022-12-24T03:57:46.617Z,10.65
2022-12-24T04:00:13.905Z,10.43
2022-12-24T04:02:41.255Z,2.63
2022-12-24T04:05:13.700Z,6.07
2022-12-24T04:07:40.671Z,7.75
2022-12-24T04:10:08.374Z,3.17
2022-12-24T04:12:35.365Z,4.55
2022-12-24T04:15:02.624Z,12.30
2022-12-24T04:17:29.543Z,9.88
2022-12-24T04:19:56.435Z,10.40
2022-12-24T04:22:23.357Z,10.65
2022-12-24T04:24:50.261Z,11.85
2022-12-24T04:27:17.761Z,7.28
2022-12-24T04:29:44.736Z,7.90
2022-12-24T04:32:11.703Z,13.18
2022-12-24T04:34:38.624Z,4.28
2022-12-24T04:37:05.763Z,3.05
2022-12-24T04:39:32.686Z,10.70
2022-12-24T04:41:59.997Z,5.85
2022-12-24T04:44:26.925Z,8.15
2022-12-24T04:46:53.837Z,14.73
2022-12-24T04:49:20.722Z,9.25
2022-12-24T04:51:48.047Z,4.53
2022-12-24T04:54:16.155Z,4.88
2022-12-24T04:56:43.077Z,4.70
2022-12-24T04:59:10.007Z,6.18
2022-12-24T05:01:37.037Z,8.07
2022-12-24T05:04:04.018Z,8.27
2022-12-24T05:06:32.800Z,9.18
2022-12-24T05:09:00.218Z,15.43
2022-12-24T05:11:27.282Z,5.32
2022-12-24T05:13:54.301Z,11.93
2022-12-24T05:16:23.757Z,10.52
2022-12-24T05:18:51.331Z,10.05
2022-12-24T05:21:22.855Z,7.20
2022-12-24T05:24:08.678Z,10.05
2022-12-24T05:26:52.067Z,16.20
2022-12-24T05:29:19.178Z,6.60
2022-12-24T05:31:46.741Z,16.15
2022-12-24T05:34:15.656Z,11.68
2022-12-24T05:36:43.657Z,9.38
2022-12-24T05:39:17.863Z,12.35
2022-12-24T05:41:45.308Z,8.43
2022-12-24T05:44:12.402Z,11.85
2022-12-24T05:46:39.745Z,11.75
2022-12-24T05:49:06.902Z,5.28
2022-12-24T05:51:33.845Z,7.18
2022-12-24T05:54:00.837Z,5.50
2022-12-24T05:56:27.887Z,6.18
2022-12-24T05:58:54.974Z,5.55
2022-12-24T06:01:23.445Z,5.60
2022-12-24T06:03:52.123Z,4.95
2022-12-24T06:06:23.905Z,6.95
2022-12-24T06:08:53.005Z,10.07
2022-12-24T06:11:26.222Z,3.63
2022-12-24T06:13:54.346Z,11.73
2022-12-24T06:16:23.511Z,7.43
2022-12-24T06:18:50.876Z,14.82
2022-12-24T06:21:18.517Z,4.05
2022-12-24T06:23:46.273Z,9.48
2022-12-24T06:26:19.434Z,4.00
2022-12-24T06:28:47.344Z,7.00
2022-12-24T06:31:18.622Z,6.40
2022-12-24T06:33:45.595Z,11.02
2022-12-24T06:36:22.367Z,8.02
2022-12-24T06:38:50.235Z,9.43
2022-12-24T06:41:18.877Z,8.88
2022-12-24T06:43:47.648Z,6.50
2022-12-24T06:46:15.873Z,4.13
2022-12-24T06:48:45.291Z,13.55
2022-12-24T06:51:13.508Z,8.50
2022-12-24T06:53:41.330Z,7.75
2022-12-24T06:56:12.520Z,17.58
2022-12-24T06:58:40.758Z,4.95
2022-12-24T07:01:11.840Z,5.75
2022-12-24T07:03:39.605Z,7.50
2022-12-24T07:06:07.432Z,7.65
2022-12-24T07:08:36.128Z,9.07
2022-12-24T07:11:03.552Z,7.97
2022-12-24T07:13:31.661Z,4.25
2022-12-24T07:16:02.514Z,5.13
2022-12-24T07:18:30.069Z,6.47
2022-12-24T07:20:57.542Z,12.63
2022-12-24T07:23:24.894Z,11.30
2022-12-24T07:25:51.836Z,11.68
2022-12-24T07:28:22.404Z,7.22
2022-12-24T07:30:52.659Z,7.82
2022-12-24T07:33:19.632Z,9.15
2022-12-24T07:35:50.796Z,5.30
2022-12-24T07:38:20.870Z,8.70
2022-12-24T07:40:47.777Z,6.15
2022-12-24T07:43:14.676Z,5.78
2022-12-24T07:45:41.598Z,2.63
2022-12-24T07:48:08.510Z,6.40
2022-12-24T07:50:35.436Z,12.23
2022-12-24T07:53:02.992Z,14.68
2022-12-24T07:55:30.219Z,9.43
2022-12-24T07:57:57.196Z,5.30
2022-12-24T08:00:24.230Z,9.15
2022-12-24T08:02:51.421Z,4.07
2022-12-24T08:05:18.884Z,10.23
2022-12-24T08:07:45.791Z,9.57
2022-12-24T08:10:12.700Z,4.40
2022-12-24T08:12:39.782Z,13.30
2022-12-24T08:15:12.715Z,6.07
2022-12-24T08:17:40.211Z,6.03
2022-12-24T08:20:08.255Z,5.63
2022-12-24T08:22:35.180Z,5.35
2022-12-24T08:25:02.079Z,8.98
2022-12-24T08:27:28.999Z,3.70
2022-12-24T08:29:55.921Z,7.40
2022-12-24T08:32:22.802Z,5.35
2022-12-24T08:34:49.713Z,6.47
2022-12-24T08:37:16.641Z,7.65
2022-12-24T08:39:43.595Z,9.15
2022-12-24T08:42:10.551Z,4.25
2022-12-24T08:44:37.559Z,9.55
2022-12-24T08:47:04.475Z,8.40
2022-12-24T08:49:31.459Z,9.05
2022-12-24T08:51:59.144Z,3.88
2022-12-24T08:54:26.292Z,7.95
2022-12-24T08:56:53.204Z,6.68
2022-12-24T08:59:20.315Z,6.65
2022-12-24T09:01:47.351Z,2.90
2022-12-24T09:04:14.567Z,4.40
2022-12-24T09:06:41.524Z,9.10
2022-12-24T09:09:09.617Z,5.65
2022-12-24T09:11:36.788Z,4.97
2022-12-24T09:14:03.973Z,4.63
2022-12-24T09:16:31.306Z,6.00
2022-12-24T09:18:58.951Z,4.70
2022-12-24T09:21:25.910Z,4.63
2022-12-24T09:23:52.858Z,8.80
2022-12-24T09:26:22.408Z,7.28
2022-12-24T09:28:49.878Z,6.25
2022-12-24T09:31:17.622Z,4.53
2022-12-24T09:33:46.926Z,4.35
2022-12-24T09:36:14.196Z,9.68
2022-12-24T09:38:41.191Z,11.30
2022-12-24T09:41:40.467Z,7.57
2022-12-24T09:44:34.798Z,14.77
2022-12-24T09:47:11.495Z,10.65
2022-12-24T09:49:44.346Z,6.20
2022-12-24T09:52:23.596Z,3.50
2022-12-24T09:55:12.170Z,15.60
2022-12-24T09:57:42.435Z,10.82
2022-12-24T10:00:24.266Z,6.40
2022-12-24T10:02:51.438Z,8.40
2022-12-24T10:05:33.588Z,9.60
2022-12-24T10:08:27.105Z,2.00
2022-12-24T10:11:56.659Z,7.68
2022-12-24T10:14:44.286Z,6.57
2022-12-24T10:17:44.410Z,7.10
2022-12-24T10:21:04.533Z,12.23
2022-12-24T10:23:37.058Z,7.03
2022-12-24T10:26:30.261Z,12.82
2022-12-24T10:29:39.295Z,7.63
2022-12-24T10:32:09.107Z,9.82
2022-12-24T10:34:46.236Z,20.33
2022-12-24T10:37:22.852Z,9.38
2022-12-24T10:39:49.769Z,7.07
2022-12-24T10:42:18.880Z,3.67
2022-12-24T10:44:55.225Z,5.13
2022-12-24T10:47:23.726Z,7.72
2022-12-24T10:50:01.900Z,9.75
2022-12-24T10:55:08.365Z,13.80
2022-12-24T10:57:35.661Z,11.73
2022-12-24T11:00:06.478Z,8.35
2022-12-24T11:02:37.419Z,10.73
2022-12-24T11:05:27.894Z,26.58
2022-12-24T11:08:26.232Z,3.08
2022-12-24T11:11:04.714Z,10.98
2022-12-24T11:13:40.106Z,5.35
2022-12-24T11:16:29.740Z,4.45
2022-12-24T11:19:00.168Z,6.72
2022-12-24T11:21:38.131Z,11.02
2022-12-24T11:24:14.206Z,8.27
2022-12-24T11:26:43.886Z,10.20
2022-12-24T11:29:28.724Z,5.90
2022-12-24T11:32:31.295Z,7.65
2022-12-24T11:35:07.916Z,2.80
2022-12-24T11:37:35.152Z,9.63
2022-12-24T11:40:03.488Z,4.88
2022-12-24T11:42:38.068Z,6.05
2022-12-24T11:45:27.953Z,11.95
2022-12-24T11:47:55.878Z,9.00
2022-12-24T11:50:38.897Z,15.05
2022-12-24T11:53:25.574Z,5.45
2022-12-24T11:56:08.786Z,13.57
2022-12-24T11:58:52.315Z,1.92
2022-12-24T12:01:30.361Z,7.45
2022-12-24T12:04:14.867Z,9.60
2022-12-24T12:07:20.870Z,4.93
2022-12-24T12:10:21.189Z,11.85
2022-12-24T12:13:11.228Z,5.13
2022-12-24T12:16:01.589Z,6.00
2022-12-24T12:18:41.776Z,15.65
2022-12-24T12:21:22.221Z,15.27
2022-12-24T12:24:07.141Z,13.60
2022-12-24T12:26:34.428Z,5.15
2022-12-24T12:29:28.751Z,7.45
2022-12-24T12:32:04.237Z,6.63
2022-12-24T12:34:54.893Z,3.83
2022-12-24T12:37:37.272Z,6.72
2022-12-24T12:40:13.405Z,9.00
2022-12-24T12:42:44.425Z,13.27
2022-12-24T12:45:34.867Z,13.82
2022-12-24T12:48:45.096Z,5.50
2022-12-24T12:51:28.871Z,14.93
2022-12-24T12:54:16.867Z,15.48
2022-12-24T12:56:49.509Z,18.45
2022-12-24T12:59:26.196Z,10.43
2022-12-24T13:02:26.459Z,10.85
2022-12-24T13:05:49.644Z,13.15
2022-12-24T13:11:46.712Z,16.10
2022-12-24T13:14:53.562Z,18.40
2022-12-24T13:18:09.595Z,18.42
2022-12-24T13:20:47.616Z,16.95
2022-12-24T13:23:21.529Z,10.65
2022-12-24T13:25:55.278Z,19.92
2022-12-24T13:28:25.332Z,17.50
2022-12-24T13:31:02.176Z,10.55
2022-12-24T13:33:38.729Z,15.73
2022-12-24T13:36:08.015Z,12.18
2022-12-24T13:38:51.751Z,5.75
2022-12-24T13:41:39.450Z,8.05
2022-12-24T13:44:09.184Z,9.75
2022-12-24T13:47:15.877Z,11.73
2022-12-24T13:49:50.118Z,10.45
2022-12-24T13:52:22.385Z,14.02
2022-12-24T13:55:06.711Z,18.35
2022-12-24T13:57:53.605Z,14.88
2022-12-24T14:00:43.197Z,14.77
2022-12-24T14:03:13.292Z,15.82
2022-12-24T14:05:43.225Z,21.35
2022-12-24T14:08:14.616Z,8.65
2022-12-24T14:10:57.813Z,19.45
2022-12-24T14:13:40.547Z,31.75
2022-12-24T14:16:31.078Z,23.30
2022-12-24T14:19:01.347Z,33.78
2022-12-24T14:22:05.482Z,23.35
2022-12-24T14:24:37.651Z,34.45
2022-12-24T14:30:06.119Z,19.02
2022-12-24T14:32:39.678Z,25.60
2022-12-24T14:35:14.028Z,16.25
2022-12-24T14:37:46.408Z,16.40
2022-12-24T14:40:18.908Z,31.58
2022-12-24T14:43:06.079Z,19.02
2022-12-24T14:45:50.776Z,20.20
2022-12-24T14:48:52.740Z,11.13
2022-12-24T14:51:43.260Z,12.25
2022-12-24T14:54:35.180Z,13.25
2022-12-24T14:57:12.610Z,8.45
2022-12-24T15:13:39.633Z,14.65
2022-12-24T15:16:12.913Z,9.68
2022-12-24T15:18:47.150Z,18.65
2022-12-24T15:21:27.838Z,6.80
2022-12-24T15:23:55.149Z,15.45
2022-12-24T15:26:36.123Z,7.57
2022-12-24T15:29:21.133Z,8.77
2022-12-24T15:31:54.482Z,19.95
2022-12-24T15:34:37.200Z,9.40
2022-12-24T15:37:30.447Z,12.85
2022-12-24T15:40:20.714Z,7.03
2022-12-24T15:42:48.071Z,6.45
2022-12-24T15:45:28.390Z,7.68
2022-12-24T15:48:06.349Z,5.53
2022-12-24T15:50:46.123Z,9.07
2022-12-24T15:53:20.300Z,9.57
2022-12-24T15:56:00.560Z,13.02
2022-12-24T15:58:31.442Z,12.80
2022-12-24T16:01:13.845Z,8.18
2022-12-24T16:03:55.540Z,5.50
2022-12-24T16:06:23.273Z,7.82
2022-12-24T16:08:51.774Z,8.73
2022-12-24T16:11:33.849Z,5.30
2022-12-24T16:14:18.925Z,5.03
2022-12-24T16:16:52.796Z,2.85
2022-12-24T16:19:34.216Z,7.25
2022-12-24T16:22:24.858Z,6.25
2022-12-24T16:24:52.653Z,6.47
2022-12-24T16:27:19.665Z,9.07
2022-12-24T16:29:46.971Z,5.50
2022-12-24T16:32:35.946Z,8.30
2022-12-24T16:35:06.022Z,13.85
2022-12-24T16:37:33.365Z,18.65
2022-12-24T16:40:04.651Z,13.60
2022-12-24T16:42:50.628Z,27.10
2022-12-24T16:45:17.917Z,29.92
2022-12-24T16:47:45.196Z,30.35
2022-12-24T16:50:16.710Z,17.55
2022-12-24T16:52:44.427Z,21.63
2022-12-24T16:55:15.177Z,16.48
2022-12-24T16:57:43.566Z,16.48
2022-12-24T17:00:23.099Z,16.58
2022-12-24T17:02:51.239Z,13.48
2022-12-24T17:05:18.921Z,10.25
2022-12-24T17:07:45.899Z,16.58
2022-12-24T17:10:14.370Z,13.30
2022-12-24T17:12:42.258Z,5.97
2022-12-24T17:15:09.912Z,6.10
2022-12-24T17:17:37.264Z,6.85
2022-12-24T17:20:05.219Z,12.45
2022-12-24T17:22:32.152Z,11.40
2022-12-24T17:24:59.526Z,10.10
2022-12-24T17:27:26.877Z,13.63
2022-12-24T17:29:54.273Z,6.93
2022-12-24T17:32:23.646Z,11.93
2022-12-24T17:34:50.585Z,8.52
2022-12-24T17:37:17.917Z,9.05
2022-12-24T17:39:45.365Z,11.15
2022-12-24T17:42:12.277Z,9.73
2022-12-24T17:44:39.639Z,10.38
2022-12-24T17:47:06.563Z,16.00
2022-12-24T17:49:33.640Z,16.90
2022-12-24T17:52:00.956Z,24.27
2022-12-24T17:54:27.973Z,22.52
2022-12-24T17:56:55.312Z,20.33
2022-12-24T17:59:22.365Z,16.45
2022-12-24T18:01:49.575Z,29.73
2022-12-24T18:04:17.104Z,25.98
2022-12-24T18:06:48.954Z,28.17
2022-12-24T18:09:17.222Z,45.67
2022-12-24T18:11:44.184Z,44.83
2022-12-24T18:14:13.932Z,43.90
2022-12-24T18:16:41.870Z,32.13
2022-12-24T18:19:12.291Z,34.45
2022-12-24T18:21:40.049Z,31.55
2022-12-24T18:24:07.874Z,37.33
2022-12-24T18:26:35.259Z,28.77
2022-12-24T18:29:04.595Z,27.77
2022-12-24T18:31:33.648Z,33.17
2022-12-24T18:34:02.889Z,23.73
2022-12-24T18:36:30.151Z,16.60
2022-12-24T18:38:57.739Z,19.23
2022-12-24T18:41:28.851Z,20.65
2022-12-24T18:44:09.957Z,22.17
2022-12-24T18:46:37.371Z,23.90
2022-12-24T18:49:04.367Z,23.80
2022-12-24T18:51:35.283Z,17.90
2022-12-24T18:54:03.217Z,28.40
2022-12-24T18:56:31.031Z,23.50
2022-12-24T18:59:00.925Z,28.27
2022-12-24T19:01:34.444Z,20.65
2022-12-24T19:04:02.617Z,25.23
2022-12-24T19:06:29.971Z,27.30
2022-12-24T19:09:00.338Z,18.70
2022-12-24T19:11:32.615Z,28.10
2022-12-24T19:14:01.302Z,21.85
2022-12-24T19:16:30.849Z,19.75
2022-12-24T19:18:57.958Z,17.00
2022-12-24T19:21:25.217Z,20.55
2022-12-24T19:23:52.309Z,26.55
2022-12-24T19:26:20.432Z,14.43
2022-12-24T19:28:47.880Z,15.23
2022-12-24T19:31:21.532Z,17.55
2022-12-24T19:33:56.870Z,26.15
2022-12-24T19:36:30.510Z,15.18
2022-12-24T19:38:58.769Z,15.98
2022-12-24T19:41:29.380Z,33.35
2022-12-24T19:44:00.417Z,31.00
2022-12-24T19:46:31.702Z,18.42
2022-12-24T19:49:02.305Z,20.08
2022-12-24T19:51:30.005Z,19.42
2022-12-24T19:53:59.246Z,8.35
2022-12-24T19:56:29.574Z,6.53
2022-12-24T19:58:57.859Z,10.70
2022-12-24T20:01:28.192Z,16.10
2022-12-24T20:03:56.302Z,15.38
2022-12-24T20:06:28.265Z,11.27
2022-12-24T20:09:07.023Z,8.90
2022-12-24T20:11:34.927Z,10.07
2022-12-24T20:14:04.132Z,11.02
2022-12-24T20:16:31.957Z,9.05
2022-12-24T20:19:03.582Z,8.40
2022-12-24T20:21:31.207Z,5.95
2022-12-24T20:23:58.563Z,6.78
2022-12-24T20:26:28.972Z,7.85
2022-12-24T20:28:56.316Z,8.43
2022-12-24T20:31:29.997Z,4.88
2022-12-24T20:33:59.450Z,3.58
2022-12-24T20:36:29.902Z,2.97
2022-12-24T20:38:58.445Z,4.43
2022-12-24T20:41:28.264Z,8.68
2022-12-24T20:43:58.611Z,7.43
2022-12-24T20:46:26.304Z,7.97
2022-12-24T20:48:53.351Z,2.97
2022-12-24T20:51:26.401Z,8.25
2022-12-24T20:53:56.656Z,5.03
2022-12-24T20:56:24.418Z,3.20
2022-12-24T20:58:52.215Z,5.78
2022-12-24T21:01:27.090Z,3.90
2022-12-24T21:03:56.462Z,6.20
2022-12-24T21:06:24.544Z,4.40
2022-12-24T21:08:53.205Z,7.13
2022-12-24T21:11:40.065Z,5.20
2022-12-24T21:14:07.376Z,12.35
2022-12-24T21:16:36.915Z,5.82
2022-12-24T21:19:05.993Z,6.35
2022-12-24T21:21:34.593Z,4.32
2022-12-24T21:24:02.369Z,7.60
2022-12-24T21:26:29.444Z,7.35
2022-12-24T21:28:56.705Z,6.50
2022-12-24T21:31:23.772Z,5.20
2022-12-24T21:33:51.256Z,3.95
2022-12-24T21:36:21.288Z,2.13
2022-12-24T21:38:48.811Z,5.50
2022-12-24T21:41:19.632Z,5.18
2022-12-24T21:43:46.724Z,7.60
2022-12-24T21:46:18.535Z,4.47
2022-12-24T21:49:04.568Z,3.30
2022-12-24T21:51:32.026Z,3.22
2022-12-24T21:54:18.032Z,3.85
2022-12-24T21:57:03.734Z,5.43
2022-12-24T21:59:31.183Z,5.45
2022-12-24T22:02:01.026Z,12.98
2022-12-24T22:04:31.924Z,6.03
2022-12-24T22:07:17.885Z,2.97
2022-12-24T22:10:03.748Z,3.50
2022-12-24T22:12:33.340Z,5.88
2022-12-24T22:15:00.855Z,5.63
2022-12-24T22:17:28.608Z,2.88
2022-12-24T22:19:55.586Z,2.45
2022-12-24T22:22:23.715Z,1.90
2022-12-24T22:24:51.491Z,2.75
2022-12-24T22:27:18.994Z,2.42
2022-12-24T22:29:46.611Z,3.75
2022-12-24T22:32:13.595Z,4.70
2022-12-24T22:34:40.633Z,4.35
2022-12-24T22:37:07.583Z,2.30
2022-12-24T22:39:34.537Z,8.02
2022-12-24T22:42:01.840Z,9.23
2022-12-24T22:44:29.089Z,9.40
2022-12-24T22:46:56.372Z,1.50
2022-12-24T22:49:23.667Z,3.92
2022-12-24T22:51:50.584Z,1.10
2022-12-24T22:54:17.635Z,5.50
2022-12-24T22:56:45.230Z,4.70
2022-12-24T22:59:15.242Z,5.07
2022-12-24T23:01:45.668Z,3.03
2022-12-24T23:04:14.008Z,5.38
2022-12-24T23:06:41.704Z,2.80
2022-12-24T23:09:12.490Z,9.80
2022-12-24T23:11:40.754Z,9.18
2022-12-24T23:14:32.583Z,5.55
2022-12-24T23:16:59.511Z,2.50
2022-12-24T23:19:26.426Z,8.18
2022-12-24T23:21:53.801Z,4.15
2022-12-24T23:24:21.132Z,7.82
2022-12-24T23:26:48.435Z,5.75
2022-12-24T23:29:15.358Z,6.78
2022-12-24T23:31:42.846Z,4.30
2022-12-24T23:34:09.774Z,4.40
2022-12-24T23:36:36.770Z,2.40
2022-12-24T23:39:04.569Z,5.35
2022-12-24T23:41:31.518Z,5.55
2022-12-24T23:43:58.438Z,6.28
2022-12-24T23:46:25.800Z,4.15
2022-12-24T23:48:57.091Z,7.25
2022-12-24T23:51:27.002Z,4.57
2022-12-24T23:53:55.912Z,4.60
2022-12-24T23:56:25.401Z,5.25
2022-12-24T23:58:52.778Z,2.42
